createdAt,value
2022-12-29T00:02:17.583Z,2.10
2022-12-29T00:04:52.122Z,2.10
2022-12-29T00:07:24.021Z,1.98
2022-12-29T00:09:56.424Z,2.20
2022-12-29T00:12:48.762Z,2.20
2022-12-29T00:15:40.430Z,2.00
2022-12-29T00:18:12.477Z,1.98
2022-12-29T00:21:03.311Z,1.80
2022-12-29T00:23:55.808Z,1.80
2022-12-29T00:26:46.640Z,1.77
2022-12-29T00:29:37.109Z,1.95
2022-12-29T00:32:29.440Z,1.90
2022-12-29T00:35:10.379Z,1.70
2022-12-29T00:38:06.155Z,1.70
2022-12-29T00:40:58.649Z,2.00
2022-12-29T00:43:49.893Z,2.03
2022-12-29T00:46:21.981Z,1.60
2022-12-29T00:49:12.944Z,1.67
2022-12-29T00:51:44.985Z,2.00
2022-12-29T00:54:18.056Z,1.60
2022-12-29T00:56:52.411Z,1.80
2022-12-29T00:59:25.371Z,2.33
2022-12-29T01:01:58.641Z,1.77
2022-12-29T01:04:31.379Z,1.90
2022-12-29T01:07:03.914Z,1.93
2022-12-29T01:09:54.913Z,1.70
2022-12-29T01:12:42.056Z,1.95
2022-12-29T01:15:17.076Z,1.90
2022-12-29T01:17:50.051Z,1.95
2022-12-29T01:20:22.073Z,2.27
2022-12-29T01:22:55.058Z,1.73
2022-12-29T01:25:27.060Z,1.90
2022-12-29T01:27:59.442Z,2.38
2022-12-29T01:30:31.575Z,1.73
2022-12-29T01:33:05.466Z,1.90
2022-12-29T01:35:37.412Z,2.15
2022-12-29T01:38:10.255Z,2.15
2022-12-29T01:40:48.081Z,1.83
2022-12-29T01:43:20.912Z,2.03
2022-12-29T01:45:55.558Z,1.90
2022-12-29T01:48:28.475Z,2.20
2022-12-29T01:51:00.464Z,2.10
2022-12-29T01:53:35.040Z,1.73
2022-12-29T01:56:11.070Z,1.90
2022-12-29T01:58:49.536Z,2.30
2022-12-29T02:01:22.837Z,1.92
2022-12-29T02:03:55.587Z,2.28
2022-12-29T02:07:00.792Z,1.65
2022-12-29T02:09:33.208Z,1.85
2022-12-29T02:12:05.209Z,1.95
2022-12-29T02:15:01.965Z,2.00
2022-12-29T02:18:17.114Z,1.95
2022-12-29T02:21:15.093Z,1.83
2022-12-29T02:24:10.009Z,2.10
2022-12-29T02:26:47.719Z,2.20
2022-12-29T02:29:38.431Z,1.88
2022-12-29T02:32:47.312Z,2.08
2022-12-29T02:35:45.486Z,1.88
2022-12-29T02:38:38.314Z,2.08
2022-12-29T02:41:32.567Z,1.97
2022-12-29T02:44:15.659Z,2.30
2022-12-29T02:47:29.465Z,1.90
2022-12-29T02:50:17.111Z,2.13
2022-12-29T02:53:01.220Z,2.20
2022-12-29T02:55:34.642Z,2.28
2022-12-29T02:58:23.472Z,2.83
2022-12-29T03:01:33.362Z,2.53
2022-12-29T03:04:32.538Z,2.35
2022-12-29T03:07:26.908Z,2.35
2022-12-29T03:10:29.312Z,2.20
2022-12-29T03:13:39.749Z,2.15
2022-12-29T03:16:49.217Z,2.40
2022-12-29T03:19:29.876Z,2.42
2022-12-29T03:22:25.412Z,2.22
2022-12-29T03:25:31.801Z,1.90
2022-12-29T03:28:14.696Z,2.70
2022-12-29T03:30:50.448Z,2.58
2022-12-29T03:33:28.605Z,2.75
2022-12-29T03:36:06.186Z,3.08
2022-12-29T03:38:48.983Z,2.73
2022-12-29T03:41:27.313Z,2.65
2022-12-29T03:44:00.464Z,2.55
2022-12-29T03:46:33.625Z,2.53
2022-12-29T03:49:06.522Z,3.13
2022-12-29T03:51:38.868Z,2.70
2022-12-29T03:54:11.791Z,2.83
2022-12-29T03:56:44.512Z,2.80
2022-12-29T03:59:18.206Z,2.50
2022-12-29T04:01:51.779Z,2.70
2022-12-29T04:04:24.548Z,2.60
2022-12-29T04:06:57.401Z,2.42
2022-12-29T04:09:30.956Z,2.75
2022-12-29T04:12:04.922Z,2.90
2022-12-29T04:14:39.907Z,2.60
2022-12-29T04:17:12.718Z,2.63
2022-12-29T04:19:46.517Z,2.50
2022-12-29T04:22:18.477Z,2.67
2022-12-29T04:24:51.330Z,3.20
2022-12-29T04:27:23.233Z,2.70
2022-12-29T04:30:13.871Z,2.90
2022-12-29T04:33:02.532Z,2.80
2022-12-29T04:35:35.724Z,3.50
2022-12-29T04:38:07.755Z,3.70
2022-12-29T04:40:43.216Z,3.00
2022-12-29T04:43:17.594Z,3.00
2022-12-29T04:46:20.791Z,2.60
2022-12-29T04:49:05.551Z,2.80
2022-12-29T04:51:53.565Z,3.20
2022-12-29T04:54:25.961Z,2.50
2022-12-29T04:57:07.584Z,2.50
2022-12-29T04:59:43.215Z,2.50
2022-12-29T05:02:16.823Z,2.60
2022-12-29T05:04:54.575Z,3.10
2022-12-29T05:07:30.534Z,2.45
2022-12-29T05:10:02.553Z,2.40
2022-12-29T05:12:38.046Z,2.90
2022-12-29T05:15:12.653Z,2.08
2022-12-29T05:17:44.621Z,2.20
2022-12-29T05:20:17.686Z,2.20
2022-12-29T05:22:49.745Z,2.00
2022-12-29T05:25:22.486Z,2.00
2022-12-29T05:28:14.008Z,2.10
2022-12-29T05:31:03.255Z,2.35
2022-12-29T05:33:36.641Z,1.88
2022-12-29T05:36:10.521Z,2.63
2022-12-29T05:38:46.781Z,2.05
2022-12-29T05:41:20.039Z,1.90
2022-12-29T05:43:53.036Z,2.00
2022-12-29T05:46:40.316Z,1.90
2022-12-29T05:49:25.474Z,2.20
2022-12-29T05:52:20.879Z,1.95
2022-12-29T05:54:53.027Z,1.70
2022-12-29T05:57:28.433Z,1.70
2022-12-29T06:00:13.276Z,2.28
2022-12-29T06:02:49.576Z,1.97
2022-12-29T06:05:24.079Z,1.80
2022-12-29T06:07:56.432Z,1.80
2022-12-29T06:10:28.902Z,2.10
2022-12-29T06:13:08.784Z,2.10
2022-12-29T06:15:45.294Z,2.07
2022-12-29T06:18:20.253Z,1.80
2022-12-29T06:20:53.300Z,1.90
2022-12-29T06:23:26.524Z,2.00
2022-12-29T06:25:58.895Z,2.17
2022-12-29T06:28:31.622Z,1.80
2022-12-29T06:31:03.858Z,1.90
2022-12-29T06:33:36.677Z,1.80
2022-12-29T06:36:09.787Z,1.90
2022-12-29T06:38:42.126Z,1.70
2022-12-29T06:41:14.126Z,1.93
2022-12-29T06:44:08.395Z,1.88
2022-12-29T06:47:00.680Z,2.00
2022-12-29T06:49:33.391Z,1.98
2022-12-29T06:52:12.414Z,2.05
2022-12-29T06:54:45.637Z,2.03
2022-12-29T06:57:17.922Z,1.98
2022-12-29T06:59:50.233Z,1.95
2022-12-29T07:02:23.945Z,1.73
2022-12-29T07:04:56.345Z,2.03
2022-12-29T07:07:29.507Z,1.70
2022-12-29T07:10:01.406Z,1.83
2022-12-29T07:12:34.235Z,1.55
2022-12-29T07:15:07.262Z,2.22
2022-12-29T07:17:39.366Z,1.95
2022-12-29T07:20:12.258Z,1.80
2022-12-29T07:22:44.967Z,2.30
2022-12-29T07:25:16.890Z,2.03
2022-12-29T07:27:51.042Z,2.25
2022-12-29T07:30:23.389Z,2.15
2022-12-29T07:32:55.265Z,1.90
2022-12-29T07:35:27.999Z,1.83
2022-12-29T07:38:00.252Z,2.13
2022-12-29T07:40:32.985Z,2.10
2022-12-29T07:43:05.053Z,2.00
2022-12-29T07:45:44.758Z,1.70
2022-12-29T07:48:17.053Z,1.90
2022-12-29T07:50:49.493Z,1.88
2022-12-29T07:53:22.275Z,2.15
2022-12-29T07:55:55.023Z,2.00
2022-12-29T07:58:28.899Z,2.10
2022-12-29T08:01:04.998Z,1.80
2022-12-29T08:03:37.779Z,2.20
2022-12-29T08:06:12.362Z,2.15
2022-12-29T08:08:44.769Z,2.05
2022-12-29T08:11:16.630Z,1.80
2022-12-29T08:13:49.855Z,2.38
2022-12-29T08:16:22.268Z,1.67
2022-12-29T08:18:55.403Z,1.90
2022-12-29T08:21:29.220Z,2.10
2022-12-29T08:24:01.954Z,2.20
2022-12-29T08:26:34.944Z,2.00
2022-12-29T08:29:07.740Z,2.10
2022-12-29T08:31:40.092Z,2.08
2022-12-29T08:34:12.939Z,2.30
2022-12-29T08:36:45.346Z,2.43
2022-12-29T08:39:17.248Z,2.40
2022-12-29T08:41:49.995Z,2.30
2022-12-29T08:44:22.652Z,2.50
2022-12-29T08:46:55.236Z,2.20
2022-12-29T08:49:27.214Z,2.30
2022-12-29T08:52:00.291Z,2.00
2022-12-29T08:54:32.191Z,2.58
2022-12-29T08:57:05.442Z,2.80
2022-12-29T08:59:44.318Z,2.35
2022-12-29T09:02:24.759Z,2.00
2022-12-29T09:04:58.392Z,2.67
2022-12-29T09:07:31.572Z,2.15
2022-12-29T09:10:05.512Z,2.47
2022-12-29T09:12:38.376Z,2.28
2022-12-29T09:15:11.089Z,2.65
2022-12-29T09:17:46.964Z,2.22
2022-12-29T09:20:20.733Z,1.98
2022-12-29T09:23:15.820Z,2.05
2022-12-29T09:25:49.168Z,2.47
2022-12-29T09:28:22.873Z,2.30
2022-12-29T09:30:56.525Z,2.40
2022-12-29T09:33:29.591Z,2.58
2022-12-29T09:36:04.911Z,2.30
2022-12-29T09:38:37.064Z,2.33
2022-12-29T09:41:28.103Z,2.20
2022-12-29T09:44:27.375Z,2.22
2022-12-29T09:47:01.626Z,2.88
2022-12-29T09:49:43.790Z,2.95
2022-12-29T09:52:49.643Z,2.67
2022-12-29T09:55:30.145Z,2.60
2022-12-29T09:58:24.289Z,2.38
2022-12-29T10:01:18.672Z,2.30
2022-12-29T10:03:54.845Z,2.20
2022-12-29T10:07:28.585Z,2.30
2022-12-29T10:10:18.737Z,2.40
2022-12-29T10:13:09.646Z,2.35
2022-12-29T10:15:58.695Z,2.70
2022-12-29T10:19:07.170Z,2.80
2022-12-29T10:22:13.362Z,2.60
2022-12-29T10:24:49.682Z,2.70
2022-12-29T10:27:22.853Z,2.70
2022-12-29T10:29:58.104Z,2.92
2022-12-29T10:32:38.121Z,2.58
2022-12-29T10:35:18.077Z,3.00
2022-12-29T10:38:24.452Z,2.50
2022-12-29T10:41:16.361Z,2.80
2022-12-29T10:43:56.159Z,2.30
2022-12-29T10:46:34.583Z,2.58
2022-12-29T10:49:21.033Z,3.30
2022-12-29T10:51:58.085Z,3.20
2022-12-29T10:55:16.468Z,3.20
2022-12-29T10:57:49.887Z,2.80
2022-12-29T11:00:23.753Z,2.85
2022-12-29T11:03:16.055Z,2.97
2022-12-29T11:06:16.386Z,2.73
2022-12-29T11:09:14.375Z,2.85
2022-12-29T11:11:46.442Z,2.95
2022-12-29T11:14:31.720Z,3.08
2022-12-29T11:17:08.649Z,2.80
2022-12-29T11:19:41.407Z,2.60
2022-12-29T11:22:29.424Z,2.60
2022-12-29T11:25:14.354Z,2.50
2022-12-29T11:28:17.980Z,2.92
2022-12-29T11:31:02.917Z,2.35
2022-12-29T11:33:40.442Z,2.63
2022-12-29T11:36:22.603Z,2.63
2022-12-29T11:38:57.597Z,2.40
2022-12-29T11:41:32.883Z,2.72
2022-12-29T11:44:06.949Z,2.70
2022-12-29T11:46:39.981Z,2.40
2022-12-29T11:49:21.066Z,2.55
2022-12-29T11:51:58.656Z,2.15
2022-12-29T11:54:35.196Z,2.42
2022-12-29T11:57:17.872Z,2.58
2022-12-29T11:59:57.389Z,2.40
2022-12-29T12:02:43.947Z,2.60
2022-12-29T12:05:36.396Z,2.03
2022-12-29T12:08:32.668Z,2.78
2022-12-29T12:11:34.566Z,2.30
2022-12-29T12:14:19.926Z,2.30
2022-12-29T12:17:32.842Z,2.15
2022-12-29T12:20:51.858Z,1.95
2022-12-29T12:24:05.729Z,2.58
2022-12-29T12:27:12.493Z,2.40
2022-12-29T12:29:54.285Z,2.60
2022-12-29T12:32:48.724Z,2.40
2022-12-29T12:35:49.107Z,2.15
2022-12-29T12:38:50.134Z,2.28
2022-12-29T12:42:03.630Z,2.28
2022-12-29T12:45:24.165Z,2.30
2022-12-29T12:48:31.276Z,2.40
2022-12-29T12:51:23.081Z,2.70
2022-12-29T12:54:44.015Z,2.50
2022-12-29T12:57:47.727Z,2.55
2022-12-29T13:00:21.162Z,2.10
2022-12-29T13:03:40.024Z,2.60
2022-12-29T13:06:30.608Z,2.60
2022-12-29T13:09:44.944Z,3.08
2022-12-29T13:12:45.130Z,2.42
2022-12-29T13:15:49.924Z,2.43
2022-12-29T13:19:03.072Z,2.50
2022-12-29T13:22:00.059Z,2.40
2022-12-29T13:24:54.188Z,2.55
2022-12-29T13:27:28.754Z,2.88
2022-12-29T13:30:11.577Z,2.30
2022-12-29T13:33:08.011Z,2.58
2022-12-29T13:35:55.634Z,2.53
2022-12-29T13:38:37.689Z,2.55
2022-12-29T13:41:17.891Z,2.90
2022-12-29T13:43:52.472Z,2.27
2022-12-29T13:46:45.122Z,2.67
2022-12-29T13:49:23.144Z,2.53
2022-12-29T13:52:12.723Z,2.67
2022-12-29T13:54:58.828Z,2.70
2022-12-29T13:57:58.907Z,2.40
2022-12-29T14:00:53.719Z,2.90
2022-12-29T14:03:54.516Z,2.63
2022-12-29T14:06:30.215Z,2.70
2022-12-29T14:09:06.047Z,2.50
2022-12-29T14:11:40.813Z,2.90
2022-12-29T14:14:21.272Z,2.78
2022-12-29T14:16:54.421Z,2.80
2022-12-29T14:19:36.998Z,3.35
2022-12-29T14:22:11.588Z,3.05
2022-12-29T14:24:46.731Z,2.90
2022-12-29T14:27:19.605Z,3.30
2022-12-29T14:29:52.738Z,2.60
2022-12-29T14:32:28.455Z,2.50
2022-12-29T14:35:40.748Z,2.53
2022-12-29T14:38:21.217Z,2.67
2022-12-29T14:40:54.215Z,2.63
2022-12-29T14:43:28.636Z,2.45
2022-12-29T14:46:02.430Z,2.72
2022-12-29T14:48:40.810Z,3.15
2022-12-29T14:51:31.864Z,2.78
2022-12-29T14:54:39.777Z,2.47
2022-12-29T14:57:34.846Z,2.50
2022-12-29T15:00:18.118Z,2.90
2022-12-29T15:03:05.046Z,2.65
2022-12-29T15:05:57.374Z,2.70
2022-12-29T15:08:34.456Z,2.60
2022-12-29T15:11:19.867Z,2.70
2022-12-29T15:13:52.098Z,2.70
2022-12-29T15:16:35.299Z,3.35
2022-12-29T15:19:23.729Z,3.40
2022-12-29T15:21:58.423Z,3.05
2022-12-29T15:24:30.903Z,3.20
2022-12-29T15:27:05.888Z,3.25
2022-12-29T15:29:44.658Z,3.40
2022-12-29T15:32:19.466Z,3.15
2022-12-29T15:35:03.137Z,2.88
2022-12-29T15:37:38.713Z,2.40
2022-12-29T15:40:31.427Z,2.72
2022-12-29T15:43:24.671Z,2.40
2022-12-29T15:45:58.130Z,2.70
2022-12-29T15:48:32.386Z,2.80
2022-12-29T15:51:05.816Z,2.40
2022-12-29T15:53:38.184Z,2.75
2022-12-29T15:56:12.275Z,2.65
2022-12-29T15:58:52.834Z,2.53
2022-12-29T16:01:29.256Z,2.70
2022-12-29T16:04:07.786Z,2.55
2022-12-29T16:06:46.218Z,3.05
2022-12-29T16:09:36.268Z,2.60
2022-12-29T16:12:21.250Z,3.17
2022-12-29T16:14:59.815Z,3.30
2022-12-29T16:17:38.809Z,3.15
2022-12-29T16:20:33.325Z,2.80
2022-12-29T16:23:05.861Z,2.85
2022-12-29T16:25:38.858Z,3.13
2022-12-29T16:28:24.121Z,2.95
2022-12-29T16:31:23.876Z,3.08
2022-12-29T16:33:56.755Z,2.42
2022-12-29T16:36:32.543Z,2.75
2022-12-29T16:39:24.560Z,2.55
2022-12-29T16:41:57.071Z,3.10
2022-12-29T16:44:32.145Z,3.20
2022-12-29T16:47:20.503Z,3.08
2022-12-29T16:49:54.999Z,2.70
2022-12-29T16:52:35.092Z,2.92
2022-12-29T16:55:15.987Z,2.80
2022-12-29T16:57:51.102Z,2.25
2022-12-29T17:00:30.632Z,2.40
2022-12-29T17:03:04.837Z,2.10
2022-12-29T17:05:36.889Z,2.35
2022-12-29T17:08:24.361Z,2.45
2022-12-29T17:11:16.511Z,2.13
2022-12-29T17:13:48.901Z,2.55
2022-12-29T17:16:21.780Z,3.10
2022-12-29T17:18:54.188Z,2.47
2022-12-29T17:21:26.890Z,2.78
2022-12-29T17:23:59.577Z,2.50
2022-12-29T17:26:31.823Z,2.53
2022-12-29T17:29:05.017Z,3.53
2022-12-29T17:31:37.467Z,2.80
2022-12-29T17:34:14.172Z,2.42
2022-12-29T17:36:46.176Z,2.72
2022-12-29T17:39:19.345Z,2.58
2022-12-29T17:41:51.727Z,2.80
2022-12-29T17:44:29.274Z,3.15
2022-12-29T17:47:02.392Z,2.38
2022-12-29T17:49:35.062Z,2.90
2022-12-29T17:52:07.374Z,2.78
2022-12-29T17:54:47.748Z,2.80
2022-12-29T17:57:21.387Z,2.85
2022-12-29T17:59:54.510Z,2.70
2022-12-29T18:02:31.208Z,2.58
2022-12-29T18:05:04.193Z,2.60
2022-12-29T18:07:36.303Z,2.60
2022-12-29T18:10:09.807Z,2.45
2022-12-29T18:12:48.088Z,2.65
2022-12-29T18:15:27.980Z,2.20
2022-12-29T18:18:02.534Z,2.85
2022-12-29T18:20:35.662Z,2.42
2022-12-29T18:23:24.427Z,2.20
2022-12-29T18:26:00.771Z,2.30
2022-12-29T18:28:34.021Z,2.60
2022-12-29T18:31:36.574Z,2.75
2022-12-29T18:34:15.891Z,2.45
2022-12-29T18:36:48.232Z,2.58
2022-12-29T18:39:24.143Z,2.20
2022-12-29T18:41:59.076Z,2.65
2022-12-29T18:44:32.238Z,2.97
2022-12-29T18:47:06.889Z,2.40
2022-12-29T18:49:39.691Z,2.10
2022-12-29T18:52:13.740Z,2.40
2022-12-29T18:54:46.435Z,2.50
2022-12-29T18:57:19.241Z,2.90
2022-12-29T18:59:52.389Z,2.70
2022-12-29T19:02:25.786Z,2.50
2022-12-29T19:05:06.874Z,2.22
2022-12-29T19:07:40.287Z,2.05
2022-12-29T19:10:13.449Z,2.20
2022-12-29T19:12:45.796Z,2.20
2022-12-29T19:15:37.860Z,2.20
2022-12-29T19:21:11.719Z,2.17
2022-12-29T19:23:46.272Z,2.13
2022-12-29T19:26:31.786Z,2.40
2022-12-29T19:29:10.911Z,2.17
2022-12-29T19:31:42.895Z,2.40
2022-12-29T19:34:17.325Z,2.47
2022-12-29T19:36:49.230Z,2.53
2022-12-29T19:39:22.253Z,2.40
2022-12-29T19:41:57.942Z,2.40
2022-12-29T19:44:33.674Z,2.35
2022-12-29T19:47:06.027Z,2.40
2022-12-29T19:52:33.122Z,2.33
2022-12-29T19:55:06.949Z,2.80
2022-12-29T19:57:39.304Z,2.30
2022-12-29T20:00:14.696Z,2.70
2022-12-29T20:02:47.084Z,2.90
2022-12-29T20:05:20.056Z,2.67
2022-12-29T20:07:52.308Z,2.97
2022-12-29T20:10:24.362Z,2.35
2022-12-29T20:12:56.657Z,2.45
2022-12-29T20:15:28.989Z,2.33
2022-12-29T20:18:16.294Z,2.53
2022-12-29T20:20:49.100Z,3.95
2022-12-29T20:23:21.848Z,2.80
2022-12-29T20:25:56.583Z,2.03
2022-12-29T20:28:30.181Z,2.13
2022-12-29T20:31:14.682Z,2.00
2022-12-29T20:33:48.065Z,2.20
2022-12-29T20:36:25.867Z,2.05
2022-12-29T20:39:00.586Z,1.98
2022-12-29T20:41:34.052Z,2.05
2022-12-29T20:44:07.155Z,2.35
2022-12-29T20:46:43.825Z,2.13
2022-12-29T20:49:16.280Z,2.10
2022-12-29T20:52:06.640Z,2.13
2022-12-29T20:54:40.185Z,1.67
2022-12-29T20:57:13.018Z,2.35
2022-12-29T20:59:45.751Z,2.50
2022-12-29T21:02:23.330Z,2.72
2022-12-29T21:07:50.220Z,2.33
2022-12-29T21:10:22.941Z,2.10
2022-12-29T21:12:55.727Z,2.17
2022-12-29T21:15:28.171Z,1.80
2022-12-29T21:18:01.003Z,2.00
2022-12-29T21:20:33.337Z,2.38
2022-12-29T21:23:06.562Z,1.90
2022-12-29T21:25:44.478Z,2.15
2022-12-29T21:28:16.834Z,1.90
2022-12-29T21:30:49.500Z,1.98
2022-12-29T21:33:22.341Z,2.70
2022-12-29T21:35:54.251Z,2.70
2022-12-29T21:38:32.201Z,2.15
2022-12-29T21:41:14.938Z,2.20
2022-12-29T21:44:07.738Z,2.08
2022-12-29T21:46:41.982Z,2.35
2022-12-29T21:49:15.236Z,2.17
2022-12-29T21:51:49.950Z,2.10
2022-12-29T21:54:47.321Z,1.90
2022-12-29T21:57:38.631Z,2.17
2022-12-29T22:00:30.701Z,2.08
2022-12-29T22:03:23.660Z,1.93
2022-12-29T22:06:14.362Z,2.45
2022-12-29T22:09:05.373Z,2.00
2022-12-29T22:11:56.234Z,2.15
2022-12-29T22:14:28.099Z,2.13
2022-12-29T22:17:00.792Z,1.50
2022-12-29T22:19:35.605Z,1.65
2022-12-29T22:22:08.136Z,1.73
2022-12-29T22:24:41.233Z,1.73
2022-12-29T22:27:13.198Z,1.80
2022-12-29T22:29:46.820Z,1.67
2022-12-29T22:32:19.099Z,1.40
2022-12-29T22:34:51.855Z,1.80
2022-12-29T22:37:24.630Z,1.60
2022-12-29T22:39:57.033Z,1.30
2022-12-29T22:42:29.001Z,1.40
2022-12-29T22:45:01.797Z,1.40
2022-12-29T22:47:34.118Z,1.90
2022-12-29T22:50:07.274Z,1.67
2022-12-29T22:52:39.995Z,1.40
2022-12-29T22:55:12.912Z,1.87
2022-12-29T22:57:46.057Z,2.00
2022-12-29T23:00:18.889Z,1.80
2022-12-29T23:02:51.412Z,1.70
2022-12-29T23:05:24.364Z,1.50
2022-12-29T23:07:56.610Z,1.30
2022-12-29T23:10:29.300Z,1.60
2022-12-29T23:13:01.186Z,1.58
2022-12-29T23:15:34.977Z,1.50
2022-12-29T23:18:07.635Z,1.38
2022-12-29T23:20:42.276Z,1.50
2022-12-29T23:23:14.158Z,1.70
2022-12-29T23:25:46.838Z,1.65
2022-12-29T23:28:18.713Z,1.48
2022-12-29T23:30:51.959Z,1.58
2022-12-29T23:33:23.881Z,1.60
2022-12-29T23:35:56.633Z,2.05
2022-12-29T23:38:29.000Z,1.73
2022-12-29T23:41:01.694Z,1.60
2022-12-29T23:43:34.882Z,1.40
2022-12-29T23:46:16.228Z,1.53
2022-12-29T23:48:49.026Z,1.88
2022-12-29T23:51:21.517Z,1.50
2022-12-29T23:53:54.327Z,1.50
2022-12-29T23:56:26.402Z,2.03
2022-12-29T23:58:59.274Z,1.73
